Time;durP1;ratioP1;P1;durP2;ratioP2;P2;SDS_P1;SDS_P2;PMS_P1;PMS_P2;Temp;Humidity;BMP_temperature;BMP_pressure;BME280_temperature;BME280_humidity;BME280_pressure;Samples;Min_cycle;Max_cycle;Signal;HPM_P1;HPM_P2
2023/09/06 00:00:27;;;;;;;3.95;3.42;;;;;;;17.26;100.00;96904.34;5096338;28;20224;-52
2023/09/06 00:02:57;;;;;;;3.58;3.28;;;;;;;17.22;100.00;96897.69;5114312;28;20204;-52
2023/09/06 00:05:23;;;;;;;4.95;3.50;;;;;;;17.20;100.00;96902.41;5113757;28;20212;-53
2023/09/06 00:07:50;;;;;;;3.92;3.15;;;;;;;17.21;100.00;96898.72;5113229;28;20208;-53
2023/09/06 00:10:17;;;;;;;3.75;3.35;;;;;;;17.13;100.00;96899.59;5114103;28;20201;-52
2023/09/06 00:12:45;;;;;;;3.38;3.08;;;;;;;17.16;100.00;96895.75;5113600;28;20201;-52
2023/09/06 00:15:11;;;;;;;3.67;3.20;;;;;;;17.10;100.00;96896.47;5113533;28;20713;-52
2023/09/06 00:17:38;;;;;;;3.80;3.50;;;;;;;17.11;100.00;96893.59;5095133;28;20208;-53
2023/09/06 00:20:18;;;;;;;3.92;3.63;;;;;;;17.12;100.00;96883.75;5112833;28;20259;-53
2023/09/06 00:22:47;;;;;;;3.85;3.45;;;;;;;17.13;100.00;96880.06;5113178;28;20649;-52
2023/09/06 00:25:13;;;;;;;4.90;3.60;;;;;;;17.11;100.00;96882.09;5113314;28;20204;-53
2023/09/06 00:27:40;;;;;;;4.45;3.53;;;;;;;17.09;100.00;96882.25;5113110;28;20244;-52
2023/09/06 00:30:08;;;;;;;3.47;3.17;;;;;;;17.03;100.00;96877.63;5113737;28;20216;-53
2023/09/06 00:32:34;;;;;;;4.90;3.45;;;;;;;17.00;100.00;96877.16;5112830;28;20266;-54
2023/09/06 00:35:01;;;;;;;4.05;3.65;;;;;;;17.04;100.00;96875.81;5112817;28;20204;-52
2023/09/06 00:37:36;;;;;;;3.78;3.42;;;;;;;17.04;100.00;96875.81;5113344;28;20221;-52
2023/09/06 00:40:10;;;;;;;3.65;3.20;;;;;;;17.00;100.00;96869.97;5114526;28;20233;-52
2023/09/06 00:42:36;;;;;;;7.15;3.42;;;;;;;16.99;100.00;96872.81;5114586;28;20296;-51
2023/09/06 00:45:04;;;;;;;5.70;3.90;;;;;;;16.95;100.00;96880.34;5113498;28;20201;-53
2023/09/06 00:47:30;;;;;;;3.85;3.50;;;;;;;16.90;100.00;96877.38;5113507;28;20197;-53
2023/09/06 00:49:57;;;;;;;3.58;3.28;;;;;;;16.82;100.00;96872.09;5113069;28;20516;-53
2023/09/06 00:52:24;;;;;;;4.35;3.50;;;;;;;16.85;100.00;96877.91;5113023;28;20634;-51
2023/09/06 00:54:52;;;;;;;3.60;3.28;;;;;;;16.88;100.00;96866.03;5112637;28;20232;-51
2023/09/06 00:57:18;;;;;;;4.53;3.20;;;;;;;16.84;100.00;96880.75;5112024;28;20201;-53
2023/09/06 00:59:46;;;;;;;3.65;3.35;;;;;;;16.80;100.00;96874.94;5112669;28;20221;-53
2023/09/06 01:02:13;;;;;;;3.90;3.58;;;;;;;16.75;100.00;96871.97;5114849;28;20205;-53
2023/09/06 01:04:39;;;;;;;3.60;3.30;;;;;;;16.66;100.00;96872.16;5116419;28;20205;-52
2023/09/06 01:07:06;;;;;;;4.60;3.38;;;;;;;16.75;100.00;96873.81;5122632;28;20220;-53
2023/09/06 01:09:33;;;;;;;4.00;3.70;;;;;;;16.69;100.00;96880.66;5114801;28;20282;-52
2023/09/06 01:12:01;;;;;;;4.90;3.55;;;;;;;16.73;100.00;96873.13;5113804;28;20201;-53
2023/09/06 01:14:27;;;;;;;4.82;4.10;;;;;;;16.65;100.00;96878.53;5113154;28;20201;-52
2023/09/06 01:16:55;;;;;;;3.85;3.55;;;;;;;16.67;100.00;96880.03;5111987;28;20258;-51
2023/09/06 01:19:24;;;;;;;3.85;3.42;;;;;;;16.68;100.00;96881.69;5112329;28;20221;-51
2023/09/06 01:21:58;;;;;;;4.05;3.55;;;;;;;16.65;100.00;96881.22;5111490;28;20201;-53
2023/09/06 01:24:28;;;;;;;5.57;3.60;;;;;;;16.61;100.00;96880.72;5111930;28;20200;-52
2023/09/06 01:26:55;;;;;;;3.90;3.60;;;;;;;16.65;100.00;96881.22;5110909;28;20196;-53
2023/09/06 01:29:22;;;;;;;4.25;3.60;;;;;;;16.55;100.00;96880.53;5111695;28;20211;-53
2023/09/06 01:31:50;;;;;;;6.88;3.95;;;;;;;16.47;100.00;96886.78;5111784;28;20512;-54
2023/09/06 01:34:19;;;;;;;4.43;4.05;;;;;;;16.44;100.00;96882.59;5112308;28;20205;-52
2023/09/06 01:36:45;;;;;;;5.30;3.92;;;;;;;16.46;100.00;96882.44;5112167;28;20200;-52
2023/09/06 01:39:12;;;;;;;6.38;3.67;;;;;;;16.46;100.00;96885.09;5112603;28;20318;-53
2023/09/06 01:41:39;;;;;;;4.93;3.67;;;;;;;16.43;100.00;96894.28;5110205;28;20201;-52
2023/09/06 01:44:06;;;;;;;3.63;3.05;;;;;;;16.39;100.00;96897.47;5112562;28;20208;-53
2023/09/06 01:46:34;;;;;;;4.40;3.80;;;;;;;16.36;100.00;96892.47;5112150;28;21238;-53
2023/09/06 01:49:00;;;;;;;4.07;3.75;;;;;;;16.40;100.00;96893.81;5111953;28;20193;-52
2023/09/06 01:51:27;;;;;;;3.88;3.55;;;;;;;16.45;100.00;96902.09;5112263;28;20201;-53
2023/09/06 01:53:53;;;;;;;3.95;3.47;;;;;;;16.42;100.00;96887.28;5110995;28;20621;-51
2023/09/06 01:56:20;;;;;;;4.15;3.75;;;;;;;16.41;100.00;96900.78;5111801;28;20208;-52
2023/09/06 01:58:48;;;;;;;4.32;3.95;;;;;;;16.38;100.00;96891.28;5111716;28;20197;-52
2023/09/06 02:01:16;;;;;;;4.43;3.90;;;;;;;16.38;100.00;96891.28;5111359;28;20193;-52
2023/09/06 02:03:43;;;;;;;4.35;3.92;;;;;;;16.38;100.00;96887.78;5110791;28;20205;-52
2023/09/06 02:06:09;;;;;;;4.40;4.00;;;;;;;16.37;100.00;96891.44;5111012;28;20201;-53
2023/09/06 02:08:36;;;;;;;4.28;3.88;;;;;;;16.32;100.00;96888.50;5091707;28;20207;-53
2023/09/06 02:11:02;;;;;;;4.63;4.22;;;;;;;16.33;100.00;96892.84;5111000;28;20205;-53
2023/09/06 02:13:29;;;;;;;4.75;3.78;;;;;;;16.31;100.00;96887.66;5111007;28;20209;-53
2023/09/06 02:15:57;;;;;;;4.40;4.05;;;;;;;16.26;100.00;96891.84;5092260;28;20201;-53
2023/09/06 02:18:26;;;;;;;6.50;4.15;;;;;;;16.16;100.00;96896.53;5111532;28;20218;-52
2023/09/06 02:20:55;;;;;;;4.22;3.60;;;;;;;16.15;100.00;96892.22;5110725;28;20821;-52
2023/09/06 02:23:22;;;;;;;3.88;3.58;;;;;;;16.14;100.00;96890.56;5111552;28;20197;-51
2023/09/06 02:25:49;;;;;;;5.82;4.03;;;;;;;16.13;100.00;96895.06;5110368;28;20201;-51
2023/09/06 02:28:17;;;;;;;4.50;3.97;;;;;;;16.12;100.00;96895.25;5111303;28;20639;-53
2023/09/06 02:30:44;;;;;;;5.88;4.30;;;;;;;16.06;100.00;96894.06;5111203;28;20197;-51
2023/09/06 02:33:14;;;;;;;4.47;4.07;;;;;;;16.05;100.00;96895.06;5110521;28;20238;-52
2023/09/06 02:35:41;;;;;;;4.70;3.90;;;;;;;15.99;100.00;96900.25;5111001;28;20284;-51
2023/09/06 02:38:07;;;;;;;4.95;4.22;;;;;;;15.96;100.00;96900.59;5111179;28;20209;-52
2023/09/06 02:40:35;;;;;;;4.50;4.10;;;;;;;16.02;100.00;96892.75;5110590;28;20311;-53
2023/09/06 02:43:04;;;;;;;4.20;3.85;;;;;;;15.99;100.00;96900.25;5110797;28;20487;-52
2023/09/06 02:45:37;;;;;;;7.13;3.85;;;;;;;15.91;100.00;96898.44;5110862;28;20232;-53
2023/09/06 02:48:06;;;;;;;4.57;4.03;;;;;;;15.83;100.00;96906.47;5111739;28;20258;-53
2023/09/06 02:50:35;;;;;;;5.88;4.07;;;;;;;15.81;100.00;96903.13;5111167;28;20897;-51
2023/09/06 02:53:03;;;;;;;4.47;4.07;;;;;;;15.90;100.00;96899.44;5110909;28;20221;-52
2023/09/06 02:55:33;;;;;;;4.60;3.92;;;;;;;15.79;100.00;96905.13;5110806;28;20205;-52
2023/09/06 02:57:59;;;;;;;4.30;3.83;;;;;;;15.73;100.00;96911.97;5110449;28;20215;-52
2023/09/06 03:00:26;;;;;;;4.75;4.13;;;;;;;15.71;100.00;96910.47;5110593;28;20225;-53
2023/09/06 03:02:58;;;;;;;5.28;4.25;;;;;;;15.66;100.00;96915.50;5111242;28;20521;-53
2023/09/06 03:05:27;;;;;;;3.90;3.60;;;;;;;15.64;100.00;96912.97;5110605;28;20208;-52
2023/09/06 03:07:55;;;;;;;5.28;3.88;;;;;;;15.68;100.00;96914.31;5112658;28;20224;-53
2023/09/06 03:10:23;;;;;;;4.47;4.07;;;;;;;15.67;100.00;96917.97;5114911;28;20201;-54
2023/09/06 03:12:55;;;;;;;6.45;4.15;;;;;;;15.54;100.00;96922.97;5101123;28;20209;-54
2023/09/06 03:15:22;;;;;;;4.75;4.32;;;;;;;15.55;100.00;96919.31;5115836;28;20227;-53
2023/09/06 03:17:51;;;;;;;5.47;4.60;;;;;;;15.55;100.00;96921.16;5112733;28;20300;-52
2023/09/06 03:20:31;;;;;;;5.65;4.95;;;;;;;15.53;100.00;96921.31;5113344;28;20252;-52
2023/09/06 03:22:59;;;;;;;4.70;4.25;;;;;;;15.49;100.00;96925.31;5115044;28;20201;-52
2023/09/06 03:25:26;;;;;;;4.88;4.15;;;;;;;15.48;100.00;96923.59;5115084;28;20269;-51
2023/09/06 03:27:54;;;;;;;5.35;4.40;;;;;;;15.54;100.00;96925.66;5114082;28;20262;-53
2023/09/06 03:30:20;;;;;;;5.20;4.20;;;;;;;15.49;100.00;96930.63;5114082;28;20246;-52
2023/09/06 03:32:48;;;;;;;5.60;4.20;;;;;;;15.45;100.00;96929.25;5115062;28;20207;-53
2023/09/06 03:35:16;;;;;;;4.73;4.10;;;;;;;15.45;100.00;96921.25;5114713;28;20241;-53
2023/09/06 03:37:42;;;;;;;5.13;4.38;;;;;;;15.43;100.00;96928.59;5114401;28;20287;-53
2023/09/06 03:40:25;;;;;;;5.77;4.77;;;;;;;15.39;100.00;96922.78;5114692;28;20538;-53
2023/09/06 03:42:53;;;;;;;4.95;4.50;;;;;;;15.31;100.00;96925.44;5114709;28;20238;-53
2023/09/06 03:45:21;;;;;;;4.32;3.92;;;;;;;15.30;100.00;96926.41;5114520;28;20228;-54
2023/09/06 03:47:48;;;;;;;4.65;4.10;;;;;;;15.29;100.00;96926.59;5114654;28;20216;-53
2023/09/06 03:50:16;;;;;;;4.53;4.13;;;;;;;15.34;100.00;96926.91;5114479;28;20197;-56
2023/09/06 03:52:43;;;;;;;6.70;4.82;;;;;;;15.30;100.00;96925.63;5114669;28;20273;-54
2023/09/06 03:55:12;;;;;;;7.13;5.05;;;;;;;15.31;100.00;96929.91;5114335;28;20294;-54
2023/09/06 03:57:39;;;;;;;6.78;4.50;;;;;;;15.31;100.00;96932.59;5114493;28;20201;-54
2023/09/06 04:00:24;;;;;;;6.90;4.60;;;;;;;15.24;100.00;96936.91;5112981;28;20240;-57
2023/09/06 04:02:52;;;;;;;4.60;4.20;;;;;;;15.28;100.00;96938.25;5115565;28;20212;-53
2023/09/06 04:05:22;;;;;;;4.78;4.30;;;;;;;15.26;100.00;96935.78;5114965;28;20270;-53
2023/09/06 04:07:50;;;;;;;6.10;4.40;;;;;;;15.24;100.00;96936.91;5114324;28;20197;-52
2023/09/06 04:10:21;;;;;;;4.80;4.33;;;;;;;15.22;100.00;96923.78;5113728;28;20649;-53
2023/09/06 04:12:48;;;;;;;5.43;4.65;;;;;;;15.21;100.00;96942.56;5114117;28;20235;-53
2023/09/06 04:15:16;;;;;;;6.32;4.93;;;;;;;15.17;100.00;96938.56;5113690;28;20213;-51
2023/09/06 04:17:43;;;;;;;5.28;4.78;;;;;;;15.21;100.00;96942.56;5113968;28;20299;-54
2023/09/06 04:20:19;;;;;;;6.45;4.57;;;;;;;15.17;100.00;96947.38;5112348;28;20225;-53
2023/09/06 04:22:47;;;;;;;4.80;4.22;;;;;;;15.15;100.00;96953.88;5112724;28;20838;-52
2023/09/06 04:25:16;;;;;;;6.50;4.50;;;;;;;15.18;100.00;96942.91;5112676;28;20258;-53
2023/09/06 04:27:46;;;;;;;5.23;4.30;;;;;;;15.13;100.00;96953.19;5094461;28;20240;-56
2023/09/06 04:30:14;;;;;;;5.10;4.65;;;;;;;15.12;100.00;96949.72;5113500;28;20201;-52
2023/09/06 04:32:45;;;;;;;5.53;4.40;;;;;;;15.11;100.00;96952.53;5112476;28;20211;-53
2023/09/06 04:35:12;;;;;;;5.60;4.27;;;;;;;15.07;100.00;96957.38;5112475;28;20209;-53
2023/09/06 04:37:39;;;;;;;4.43;4.10;;;;;;;15.03;100.00;96952.53;5114207;28;20258;-51
2023/09/06 04:40:08;;;;;;;5.25;4.75;;;;;;;15.01;100.00;96946.53;5122471;28;20309;-52
2023/09/06 04:42:34;;;;;;;5.03;4.60;;;;;;;15.03;100.00;96953.34;5124981;27;20593;-52
2023/09/06 04:45:03;;;;;;;6.57;4.70;;;;;;;14.97;100.00;96961.16;5126805;28;20209;-52
2023/09/06 04:47:31;;;;;;;4.77;4.33;;;;;;;15.01;100.00;96947.38;5127099;28;20212;-52
2023/09/06 04:49:58;;;;;;;5.63;5.13;;;;;;;15.01;100.00;96955.38;5115967;28;20246;-51
2023/09/06 04:52:26;;;;;;;5.33;4.83;;;;;;;15.02;100.00;96958.88;5113035;28;20577;-52
2023/09/06 04:54:53;;;;;;;6.97;4.75;;;;;;;15.02;100.00;96970.31;5112364;28;20216;-51
2023/09/06 04:57:19;;;;;;;6.03;4.60;;;;;;;14.98;100.00;96969.00;5112481;28;20252;-53
2023/09/06 04:59:46;;;;;;;5.23;4.70;;;;;;;14.97;100.00;96971.81;5112203;28;20262;-53
2023/09/06 05:02:15;;;;;;;4.93;4.30;;;;;;;14.93;100.00;96966.81;5113362;28;20262;-54
2023/09/06 05:04:43;;;;;;;7.57;4.47;;;;;;;14.97;100.00;96971.81;5113491;28;20285;-57
2023/09/06 05:07:10;;;;;;;5.47;4.80;;;;;;;15.03;100.00;96960.50;5112876;28;20235;-53
2023/09/06 05:09:37;;;;;;;6.63;4.60;;;;;;;15.01;100.00;96968.69;5112779;28;20285;-50
2023/09/06 05:12:05;;;;;;;5.00;4.60;;;;;;;15.02;100.00;96962.34;5112824;28;20216;-51
2023/09/06 05:14:32;;;;;;;5.20;4.32;;;;;;;15.01;100.00;96965.19;5113548;28;20207;-52
2023/09/06 05:17:00;;;;;;;6.77;4.50;;;;;;;15.03;100.00;96968.50;5117141;28;20208;-54
2023/09/06 05:19:28;;;;;;;5.50;5.03;;;;;;;15.01;100.00;96973.16;5113857;28;20209;-53
2023/09/06 05:21:55;;;;;;;5.82;4.80;;;;;;;15.03;100.00;96979.16;5112290;28;20225;-52
2023/09/06 05:24:21;;;;;;;7.35;4.57;;;;;;;15.06;100.00;96976.16;5112547;28;20229;-51
2023/09/06 05:26:48;;;;;;;6.47;5.07;;;;;;;15.06;100.00;96981.50;5112992;28;20206;-52
2023/09/06 05:29:15;;;;;;;5.30;4.67;;;;;;;15.19;100.00;96985.38;5112013;28;20216;-51
2023/09/06 05:31:42;;;;;;;6.07;4.37;;;;;;;15.25;100.00;96981.22;5112574;28;20201;-52
2023/09/06 05:34:08;;;;;;;5.78;4.85;;;;;;;15.28;100.00;96983.53;5093424;28;20283;-52
2023/09/06 05:36:41;;;;;;;5.40;4.90;;;;;;;15.28;100.00;96975.56;5111921;28;20201;-53
2023/09/06 05:39:09;;;;;;;6.57;4.93;;;;;;;15.35;100.00;96972.06;5111933;28;20204;-52
2023/09/06 05:41:35;;;;;;;6.07;4.93;;;;;;;15.38;100.00;96969.06;5111039;28;20753;-51
2023/09/06 05:44:02;;;;;;;5.77;5.20;;;;;;;15.45;100.00;96969.25;5112119;28;20584;-56
2023/09/06 05:46:30;;;;;;;5.23;4.73;;;;;;;15.49;100.00;96973.28;5112317;28;20197;-52
2023/09/06 05:48:56;;;;;;;5.47;4.93;;;;;;;15.54;100.00;96965.63;5113971;28;20201;-53
2023/09/06 05:51:26;;;;;;;6.35;5.05;;;;;;;15.62;100.00;96968.31;5112261;28;20551;-53
2023/09/06 05:53:54;;;;;;;5.73;4.80;;;;;;;15.71;100.00;96971.78;5111933;28;20213;-52
2023/09/06 05:56:21;;;;;;;4.90;4.50;;;;;;;15.79;100.00;96969.13;5111730;28;20552;-51
2023/09/06 05:58:47;;;;;;;6.43;5.35;;;;;;;15.88;100.00;96971.63;5111888;28;20205;-52
2023/09/06 06:01:17;;;;;;;8.27;5.10;;;;;;;16.00;100.00;96963.28;5111187;28;20529;-54
2023/09/06 06:03:44;;;;;;;5.80;5.28;;;;;;;16.22;100.00;96966.09;5112564;28;20228;-52
2023/09/06 06:06:13;;;;;;;7.95;5.00;;;;;;;16.72;100.00;96962.28;5111616;28;20212;-52
2023/09/06 06:08:42;;;;;;;5.43;4.90;;;;;;;17.28;100.00;96964.66;5111950;28;20644;-53
2023/09/06 06:11:11;;;;;;;5.60;5.10;;;;;;;17.69;100.00;96973.25;5112334;28;20641;-52
2023/09/06 06:13:38;;;;;;;6.72;4.90;;;;;;;18.24;100.00;96977.47;5113580;28;20197;-53
2023/09/06 06:16:06;;;;;;;5.72;5.10;;;;;;;18.82;100.00;96982.84;5114372;28;20752;-53
2023/09/06 06:18:33;;;;;;;5.15;4.63;;;;;;;19.17;95.29;96978.53;5113488;28;20304;-53
2023/09/06 06:21:00;;;;;;;5.43;4.60;;;;;;;19.77;92.39;96975.50;5111949;28;20377;-53
2023/09/06 06:23:28;;;;;;;6.70;5.10;;;;;;;20.06;89.13;96982.56;5111612;28;20284;-52
2023/09/06 06:25:55;;;;;;;10.18;5.18;;;;;;;20.57;88.22;96977.00;5112323;28;20220;-52
2023/09/06 06:28:23;;;;;;;5.35;4.85;;;;;;;20.99;84.12;96984.03;5112061;28;20224;-53
2023/09/06 06:30:50;;;;;;;5.93;5.07;;;;;;;21.75;79.54;96978.31;5111670;28;20208;-52
2023/09/06 06:33:16;;;;;;;6.97;4.70;;;;;;;22.27;78.06;96984.81;5113004;28;20205;-53
2023/09/06 06:35:43;;;;;;;7.20;5.28;;;;;;;23.06;71.86;96987.41;5113722;28;20205;-54
2023/09/06 06:38:11;;;;;;;5.35;4.80;;;;;;;23.26;72.87;96990.84;5113230;28;20541;-52
2023/09/06 06:40:38;;;;;;;5.10;4.70;;;;;;;23.11;73.91;96992.97;5112079;28;20220;-53
2023/09/06 06:43:04;;;;;;;8.10;5.30;;;;;;;22.98;74.72;96983.06;5112497;28;20730;-54
2023/09/06 06:45:32;;;;;;;8.45;4.75;;;;;;;23.18;73.01;96994.59;5114081;28;20204;-53
2023/09/06 06:48:00;;;;;;;7.40;5.50;;;;;;;22.89;74.64;96991.59;5114541;28;20262;-52
2023/09/06 06:50:26;;;;;;;6.55;4.97;;;;;;;22.82;73.60;96988.91;5114412;28;20201;-53
2023/09/06 06:52:53;;;;;;;6.55;5.20;;;;;;;23.29;70.05;96985.03;5113461;28;20204;-53
2023/09/06 06:55:20;;;;;;;6.32;5.13;;;;;;;23.38;72.66;96989.16;5112091;28;20205;-53
2023/09/06 06:57:47;;;;;;;6.45;5.00;;;;;;;23.10;72.16;96989.44;5112534;28;20197;-51
2023/09/06 07:00:17;;;;;;;5.50;4.55;;;;;;;23.45;71.46;96989.97;5113536;28;20228;-52
2023/09/06 07:02:46;;;;;;;6.05;4.80;;;;;;;23.25;73.53;96992.72;5112723;28;20283;-53
2023/09/06 07:05:13;;;;;;;4.90;4.43;;;;;;;22.87;73.29;96993.69;5112191;28;20664;-52
2023/09/06 07:07:39;;;;;;;6.00;5.15;;;;;;;22.65;72.77;96991.19;5112314;28;20225;-53
2023/09/06 07:10:07;;;;;;;5.35;4.85;;;;;;;23.10;73.21;96988.59;5110766;28;20215;-53
2023/09/06 07:12:35;;;;;;;5.55;5.03;;;;;;;22.92;74.45;96993.88;5110831;28;20212;-53
2023/09/06 07:15:03;;;;;;;5.63;5.03;;;;;;;22.77;76.51;96986.88;5111561;28;20223;-52
2023/09/06 07:17:30;;;;;;;5.65;5.00;;;;;;;22.72;75.14;96994.75;5112245;28;20205;-51
2023/09/06 07:19:58;;;;;;;6.20;5.00;;;;;;;22.18;79.28;96994.13;5111506;28;20205;-52
2023/09/06 07:22:25;;;;;;;5.68;5.10;;;;;;;22.19;78.15;96993.09;5111463;28;20691;-54
2023/09/06 07:24:51;;;;;;;7.20;5.75;;;;;;;22.08;78.11;96989.16;5112739;28;20217;-52
2023/09/06 07:27:18;;;;;;;7.85;5.80;;;;;;;21.94;79.14;96983.97;5113500;28;20254;-53
2023/09/06 07:29:44;;;;;;;6.93;5.45;;;;;;;21.66;82.34;96984.94;5117090;28;20205;-53
2023/09/06 07:32:13;;;;;;;6.10;5.50;;;;;;;21.77;81.13;96978.94;5124800;28;20220;-55
2023/09/06 07:34:39;;;;;;;9.18;5.40;;;;;;;21.58;81.81;96979.72;5114027;28;20208;-52
2023/09/06 07:37:10;;;;;;;6.03;5.53;;;;;;;21.77;80.77;96981.66;5112009;28;20232;-51
2023/09/06 07:39:36;;;;;;;6.28;5.68;;;;;;;22.04;81.71;96979.00;5112320;28;20209;-52
2023/09/06 07:42:03;;;;;;;6.28;5.68;;;;;;;22.25;76.79;96992.25;5111776;28;20213;-52
2023/09/06 07:44:32;;;;;;;10.93;5.57;;;;;;;22.26;82.10;96986.69;5111731;28;20213;-52
2023/09/06 07:46:59;;;;;;;5.82;5.20;;;;;;;22.41;81.81;96991.03;5110930;28;20517;-53
2023/09/06 07:49:30;;;;;;;7.20;5.47;;;;;;;22.40;78.17;96989.34;5111170;28;20211;-52
2023/09/06 07:51:57;;;;;;;5.82;5.32;;;;;;;22.29;79.85;96990.81;5110370;28;20223;-53
2023/09/06 07:54:25;;;;;;;6.60;5.20;;;;;;;22.17;80.15;96989.81;5110855;28;20295;-52
2023/09/06 07:56:52;;;;;;;6.40;5.80;;;;;;;22.06;81.37;96993.09;5110549;28;20616;-51
2023/09/06 07:59:21;;;;;;;10.48;5.55;;;;;;;22.05;80.43;96991.44;5110605;28;20730;-54
2023/09/06 08:01:48;;;;;;;7.55;5.28;;;;;;;21.79;82.60;96987.66;5110613;28;20229;-53
2023/09/06 08:04:18;;;;;;;6.43;5.40;;;;;;;21.77;81.15;96988.88;5109924;28;20213;-54
2023/09/06 08:06:45;;;;;;;6.07;5.47;;;;;;;21.70;84.66;96983.50;5110969;28;20197;-53
2023/09/06 08:09:13;;;;;;;13.20;5.85;;;;;;;21.66;83.33;96993.00;5113014;28;20288;-52
2023/09/06 08:11:43;;;;;;;6.60;6.00;;;;;;;21.61;83.73;96990.09;5112533;28;20209;-52
2023/09/06 08:14:10;;;;;;;8.40;5.45;;;;;;;21.56;86.66;96984.50;5112266;28;20193;-53
2023/09/06 08:16:36;;;;;;;5.50;5.00;;;;;;;21.70;85.87;96979.97;5117297;28;20215;-51
2023/09/06 08:19:04;;;;;;;5.88;5.32;;;;;;;21.79;85.06;96974.19;5131429;28;20211;-50
2023/09/06 08:21:31;;;;;;;6.72;6.03;;;;;;;21.96;85.14;96982.75;5127390;28;20225;-51
2023/09/06 08:23:58;;;;;;;9.48;6.18;;;;;;;21.97;84.24;96983.56;5119772;28;20225;-51
2023/09/06 08:26:24;;;;;;;7.90;5.63;;;;;;;22.39;83.21;96985.03;5115358;28;20504;-53
2023/09/06 08:28:52;;;;;;;6.97;5.32;;;;;;;22.71;80.96;96982.28;5114171;28;20237;-51
2023/09/06 08:31:19;;;;;;;6.03;5.43;;;;;;;23.06;82.63;96984.72;5113814;28;20193;-53
2023/09/06 08:33:45;;;;;;;8.38;5.43;;;;;;;23.21;78.99;96982.56;5114799;28;20212;-52
2023/09/06 08:36:12;;;;;;;6.63;5.82;;;;;;;23.47;78.46;96977.06;5115231;28;20295;-52
2023/09/06 08:38:40;;;;;;;7.32;5.10;;;;;;;23.79;75.67;96973.34;5115552;28;20276;-52
2023/09/06 08:41:07;;;;;;;6.57;5.28;;;;;;;23.92;76.41;96983.22;5114987;28;20628;-53
2023/09/06 08:43:36;;;;;;;6.13;5.28;;;;;;;24.17;74.94;96977.88;5115380;28;20243;-52
2023/09/06 08:46:09;;;;;;;6.75;5.53;;;;;;;24.34;75.94;96973.56;5114539;28;20288;-53
2023/09/06 08:48:37;;;;;;;6.47;5.63;;;;;;;24.35;72.74;96975.25;5114468;28;20200;-53
2023/09/06 08:51:05;;;;;;;7.65;5.10;;;;;;;24.75;72.97;96971.13;5114830;28;20205;-53
2023/09/06 08:53:33;;;;;;;10.82;6.57;;;;;;;24.78;71.36;96976.06;5114283;28;20201;-53
2023/09/06 08:56:00;;;;;;;6.82;5.40;;;;;;;25.16;72.10;96980.47;5115012;28;20297;-52
2023/09/06 08:58:28;;;;;;;6.15;5.38;;;;;;;25.20;69.65;96968.13;5114561;28;21366;-52
2023/09/06 09:00:55;;;;;;;6.50;5.30;;;;;;;25.46;70.75;96965.09;5114806;28;20201;-52
2023/09/06 09:03:22;;;;;;;12.82;6.13;;;;;;;25.63;70.75;96971.56;5113674;28;20589;-54
2023/09/06 09:05:49;;;;;;;7.57;5.85;;;;;;;25.32;70.24;96969.03;5113464;28;20212;-53
2023/09/06 09:08:15;;;;;;;8.75;6.15;;;;;;;25.41;69.21;96978.47;5112665;28;20205;-53
2023/09/06 09:10:42;;;;;;;7.32;6.35;;;;;;;25.51;69.34;96977.97;5112856;28;20208;-53
2023/09/06 09:13:11;;;;;;;7.60;6.40;;;;;;;25.88;67.88;96976.81;5112830;28;20198;-53
2023/09/06 09:15:38;;;;;;;6.10;5.38;;;;;;;26.13;71.12;96979.34;5114317;28;20224;-53
2023/09/06 09:18:11;;;;;;;7.25;5.68;;;;;;;25.90;67.53;96965.75;5113165;28;20193;-52
2023/09/06 09:20:41;;;;;;;6.68;5.35;;;;;;;26.14;69.95;96970.19;5113615;28;20516;-51
2023/09/06 09:23:12;;;;;;;6.22;5.50;;;;;;;26.23;70.97;96975.03;5113405;28;20240;-52
2023/09/06 09:25:46;;;;;;;6.85;5.78;;;;;;;26.34;67.80;96975.28;5114606;28;20193;-52
2023/09/06 09:28:14;;;;;;;6.65;6.00;;;;;;;26.17;67.45;96973.28;5114880;28;20232;-56
2023/09/06 09:30:41;;;;;;;7.32;6.45;;;;;;;26.11;68.33;96976.06;5114256;28;20201;-52
2023/09/06 09:33:08;;;;;;;6.32;5.68;;;;;;;26.48;67.83;96971.28;5113863;28;20216;-52
2023/09/06 09:35:36;;;;;;;6.88;5.65;;;;;;;26.68;67.10;96979.91;5113522;28;20197;-52
2023/09/06 09:38:06;;;;;;;6.07;5.18;;;;;;;26.99;67.24;96965.19;5095410;28;20591;-52
2023/09/06 09:40:33;;;;;;;6.13;5.55;;;;;;;27.17;64.73;96965.03;5112731;28;20201;-52
2023/09/06 09:43:01;;;;;;;7.97;5.35;;;;;;;27.23;67.00;96957.78;5112582;28;20225;-52
2023/09/06 09:45:32;;;;;;;8.18;6.22;;;;;;;27.47;63.37;96965.66;5098650;28;20629;-52
2023/09/06 09:47:59;;;;;;;9.05;6.20;;;;;;;27.20;65.30;96959.13;5114531;28;20235;-51
2023/09/06 09:50:29;;;;;;;6.60;5.55;;;;;;;27.43;65.93;96953.59;5115732;28;20197;-52
2023/09/06 09:52:56;;;;;;;8.80;6.32;;;;;;;26.96;64.61;96954.81;5116644;28;20197;-53
2023/09/06 09:55:28;;;;;;;6.75;5.22;;;;;;;27.34;66.49;96948.78;5116780;28;20209;-52
2023/09/06 09:57:55;;;;;;;7.13;5.75;;;;;;;27.26;66.23;96950.00;5116560;28;20197;-52
2023/09/06 10:00:27;;;;;;;9.05;6.30;;;;;;;27.30;66.39;96953.88;5115410;28;20219;-53
2023/09/06 10:02:55;;;;;;;6.55;5.38;;;;;;;27.86;68.17;96946.81;5113922;28;20223;-51
2023/09/06 10:05:23;;;;;;;6.32;5.30;;;;;;;28.07;68.27;96943.41;5111558;28;20280;-52
2023/09/06 10:07:50;;;;;;;6.75;5.30;;;;;;;28.27;65.79;96932.88;5111259;28;20283;-52
2023/09/06 10:10:20;;;;;;;7.55;6.32;;;;;;;28.23;63.61;96931.75;5110627;28;20201;-53
2023/09/06 10:12:50;;;;;;;6.40;5.63;;;;;;;27.90;64.60;96926.25;5111211;28;20197;-51
2023/09/06 10:15:19;;;;;;;5.65;5.13;;;;;;;28.14;66.93;96922.31;5111661;28;20216;-53
2023/09/06 10:17:47;;;;;;;6.70;5.60;;;;;;;27.90;64.81;96923.50;5119613;28;20639;-54
2023/09/06 10:20:16;;;;;;;6.05;5.28;;;;;;;28.29;66.16;96921.75;5128810;28;20197;-54
2023/09/06 10:22:43;;;;;;;6.05;5.13;;;;;;;28.53;64.37;96921.31;5125395;28;20217;-52
2023/09/06 10:25:11;;;;;;;5.90;5.30;;;;;;;28.39;64.52;96925.44;5123799;28;20193;-53
2023/09/06 10:27:46;;;;;;;6.20;5.43;;;;;;;28.29;64.89;96922.56;5116801;28;20326;-52
2023/09/06 10:30:17;;;;;;;10.00;5.82;;;;;;;28.53;64.79;96926.75;5111543;28;20600;-54
2023/09/06 10:32:44;;;;;;;5.95;5.20;;;;;;;28.54;65.36;96922.97;5114241;28;20202;-53
2023/09/06 10:35:23;;;;;;;6.82;5.47;;;;;;;28.48;64.61;96913.09;5117243;28;20548;-52
2023/09/06 10:38:05;;;;;;;8.40;5.45;;;;;;;28.49;65.74;96911.16;5120105;28;20310;-52
2023/09/06 10:41:09;;;;;;;6.60;5.30;;;;;;;28.73;67.04;96907.22;5121674;28;20197;-52
2023/09/06 10:43:55;;;;;;;7.65;5.80;;;;;;;28.70;65.13;96909.63;5021230;28;20280;-52
2023/09/06 10:46:28;;;;;;;6.07;5.45;;;;;;;28.39;67.15;96903.69;5022103;28;20201;-57
2023/09/06 10:49:20;;;;;;;7.43;5.82;;;;;;;28.44;63.87;96901.06;5086277;28;20205;-57
2023/09/06 10:52:00;;;;;;;5.68;5.18;;;;;;;28.59;65.77;96893.09;5120471;27;20338;-54
2023/09/06 10:54:34;;;;;;;8.45;5.35;;;;;;;28.79;64.06;96891.78;5119038;28;20579;-53
2023/09/06 10:57:03;;;;;;;5.65;5.10;;;;;;;28.97;66.52;96894.19;5112003;28;20205;-52
2023/09/06 10:59:31;;;;;;;5.70;5.18;;;;;;;28.85;66.86;96896.19;5111046;28;20197;-52
2023/09/06 11:02:27;;;;;;;5.53;5.03;;;;;;;28.97;63.73;96888.75;5111368;28;20798;-53
2023/09/06 11:05:09;;;;;;;5.85;4.55;;;;;;;29.33;63.80;96882.69;5111367;28;20574;-52
2023/09/06 11:07:41;;;;;;;6.15;5.55;;;;;;;29.35;62.88;96880.50;5093965;28;20215;-53
2023/09/06 11:10:09;;;;;;;5.32;4.55;;;;;;;29.69;63.28;96872.94;5109677;28;20205;-52
2023/09/06 11:12:36;;;;;;;5.07;4.57;;;;;;;29.83;61.59;96876.88;5111027;28;20204;-52
2023/09/06 11:15:05;;;;;;;6.10;4.95;;;;;;;29.77;64.39;96877.09;5110223;28;20534;-54
2023/09/06 11:17:34;;;;;;;5.30;4.72;;;;;;;29.70;64.00;96868.31;5111738;28;20615;-51
2023/09/06 11:20:12;;;;;;;5.22;4.72;;;;;;;29.69;63.34;96880.31;5110894;28;20534;-51
2023/09/06 11:22:38;;;;;;;5.85;4.55;;;;;;;29.54;61.21;96875.53;5112660;28;20213;-52
2023/09/06 11:25:16;;;;;;;5.35;4.85;;;;;;;29.52;63.13;96873.06;5112353;28;20544;-52
2023/09/06 11:27:42;;;;;;;4.90;4.50;;;;;;;29.62;62.95;96870.41;5111891;28;20236;-52
2023/09/06 11:30:10;;;;;;;5.68;4.47;;;;;;;29.75;61.24;96874.66;5111084;28;20348;-52
2023/09/06 11:32:39;;;;;;;4.90;4.43;;;;;;;29.82;59.38;96869.81;5111551;28;20317;-53
2023/09/06 11:35:08;;;;;;;6.90;4.63;;;;;;;29.41;62.88;96867.75;5110957;28;20193;-52